sensor_id;sensor_type;location;lat;lon;timestamp;P1;durP1;ratioP1;P2;durP2;ratioP2
5608;SDS011;2826;51.354;9.588;2023-03-01T00:01:14;15.13;;;9.00;;
5608;SDS011;2826;51.354;9.588;2023-03-01T00:03:44;16.63;;;8.60;;
5608;SDS011;2826;51.354;9.588;2023-03-01T00:06:12;12.80;;;7.90;;
5608;SDS011;2826;51.354;9.588;2023-03-01T00:08:39;14.43;;;8.23;;
5608;SDS011;2826;51.354;9.588;2023-03-01T00:11:06;17.33;;;8.30;;
5608;SDS011;2826;51.354;9.588;2023-03-01T00:13:34;12.87;;;7.83;;
5608;SDS011;2826;51.354;9.588;2023-03-01T00:16:02;15.40;;;7.40;;
5608;SDS011;2826;51.354;9.588;2023-03-01T00:18:29;17.87;;;8.63;;
5608;SDS011;2826;51.354;9.588;2023-03-01T00:20:57;18.27;;;8.33;;
5608;SDS011;2826;51.354;9.588;2023-03-01T00:23:24;17.80;;;8.47;;
5608;SDS011;2826;51.354;9.588;2023-03-01T00:25:51;17.77;;;9.13;;
5608;SDS011;2826;51.354;9.588;2023-03-01T00:28:18;17.70;;;8.03;;
5608;SDS011;2826;51.354;9.588;2023-03-01T00:30:44;13.30;;;6.70;;
5608;SDS011;2826;51.354;9.588;2023-03-01T00:33:11;16.30;;;8.57;;
5608;SDS011;2826;51.354;9.588;2023-03-01T00:35:38;13.00;;;7.50;;
5608;SDS011;2826;51.354;9.588;2023-03-01T00:38:06;21.93;;;8.43;;
5608;SDS011;2826;51.354;9.588;2023-03-01T00:40:34;14.80;;;8.43;;
5608;SDS011;2826;51.354;9.588;2023-03-01T00:43:02;14.63;;;7.97;;
5608;SDS011;2826;51.354;9.588;2023-03-01T00:45:29;16.03;;;9.07;;
5608;SDS011;2826;51.354;9.588;2023-03-01T00:47:57;18.10;;;8.30;;
5608;SDS011;2826;51.354;9.588;2023-03-01T00:50:24;22.60;;;9.20;;
5608;SDS011;2826;51.354;9.588;2023-03-01T00:52:52;13.30;;;6.87;;
5608;SDS011;2826;51.354;9.588;2023-03-01T00:55:21;13.27;;;7.90;;
5608;SDS011;2826;51.354;9.588;2023-03-01T00:57:48;15.07;;;8.27;;
5608;SDS011;2826;51.354;9.588;2023-03-01T01:00:15;16.13;;;9.00;;
5608;SDS011;2826;51.354;9.588;2023-03-01T01:02:43;12.90;;;7.17;;
5608;SDS011;2826;51.354;9.588;2023-03-01T01:05:10;14.53;;;8.10;;
5608;SDS011;2826;51.354;9.588;2023-03-01T01:07:37;18.00;;;8.50;;
5608;SDS011;2826;51.354;9.588;2023-03-01T01:10:03;18.33;;;8.67;;
5608;SDS011;2826;51.354;9.588;2023-03-01T01:12:32;12.63;;;7.47;;
5608;SDS011;2826;51.354;9.588;2023-03-01T01:14:59;13.80;;;8.37;;
5608;SDS011;2826;51.354;9.588;2023-03-01T01:17:26;17.03;;;7.77;;
5608;SDS011;2826;51.354;9.588;2023-03-01T01:19:52;13.73;;;8.20;;
5608;SDS011;2826;51.354;9.588;2023-03-01T01:22:19;13.80;;;7.63;;
5608;SDS011;2826;51.354;9.588;2023-03-01T01:24:46;17.77;;;8.00;;
5608;SDS011;2826;51.354;9.588;2023-03-01T01:27:12;13.33;;;7.80;;
5608;SDS011;2826;51.354;9.588;2023-03-01T01:29:40;13.77;;;7.50;;
5608;SDS011;2826;51.354;9.588;2023-03-01T01:32:07;15.10;;;8.00;;
5608;SDS011;2826;51.354;9.588;2023-03-01T01:34:34;12.87;;;6.43;;
5608;SDS011;2826;51.354;9.588;2023-03-01T01:37:00;11.47;;;7.70;;
5608;SDS011;2826;51.354;9.588;2023-03-01T01:39:28;15.30;;;7.43;;
5608;SDS011;2826;51.354;9.588;2023-03-01T01:41:55;13.90;;;7.57;;
5608;SDS011;2826;51.354;9.588;2023-03-01T01:44:22;14.60;;;7.50;;
5608;SDS011;2826;51.354;9.588;2023-03-01T01:46:52;13.50;;;7.40;;
5608;SDS011;2826;51.354;9.588;2023-03-01T01:49:26;14.30;;;7.70;;
5608;SDS011;2826;51.354;9.588;2023-03-01T01:52:00;14.07;;;7.30;;
5608;SDS011;2826;51.354;9.588;2023-03-01T01:54:36;15.90;;;7.90;;
5608;SDS011;2826;51.354;9.588;2023-03-01T01:57:07;12.00;;;7.40;;
5608;SDS011;2826;51.354;9.588;2023-03-01T01:59:39;21.13;;;7.57;;
5608;SDS011;2826;51.354;9.588;2023-03-01T02:02:11;12.40;;;7.33;;
5608;SDS011;2826;51.354;9.588;2023-03-01T02:04:37;13.03;;;7.63;;
5608;SDS011;2826;51.354;9.588;2023-03-01T02:07:06;18.53;;;7.70;;
5608;SDS011;2826;51.354;9.588;2023-03-01T02:09:39;16.53;;;8.77;;
5608;SDS011;2826;51.354;9.588;2023-03-01T02:12:08;13.50;;;7.40;;
5608;SDS011;2826;51.354;9.588;2023-03-01T02:14:34;14.47;;;6.90;;
5608;SDS011;2826;51.354;9.588;2023-03-01T02:17:02;19.83;;;7.70;;
5608;SDS011;2826;51.354;9.588;2023-03-01T02:19:34;15.47;;;7.57;;
5608;SDS011;2826;51.354;9.588;2023-03-01T02:22:12;11.57;;;7.10;;
5608;SDS011;2826;51.354;9.588;2023-03-01T02:24:48;13.90;;;8.40;;
5608;SDS011;2826;51.354;9.588;2023-03-01T02:27:26;15.33;;;7.77;;
5608;SDS011;2826;51.354;9.588;2023-03-01T02:30:01;14.67;;;7.60;;
5608;SDS011;2826;51.354;9.588;2023-03-01T02:32:27;12.97;;;7.43;;
5608;SDS011;2826;51.354;9.588;2023-03-01T02:34:54;15.03;;;7.90;;
5608;SDS011;2826;51.354;9.588;2023-03-01T02:37:21;12.07;;;7.13;;
5608;SDS011;2826;51.354;9.588;2023-03-01T02:39:51;12.57;;;7.17;;
5608;SDS011;2826;51.354;9.588;2023-03-01T02:42:25;12.47;;;7.17;;
5608;SDS011;2826;51.354;9.588;2023-03-01T02:44:55;13.17;;;6.67;;
5608;SDS011;2826;51.354;9.588;2023-03-01T02:47:23;13.57;;;6.87;;
5608;SDS011;2826;51.354;9.588;2023-03-01T02:49:50;12.30;;;7.23;;
5608;SDS011;2826;51.354;9.588;2023-03-01T02:55:04;13.70;;;7.10;;
5608;SDS011;2826;51.354;9.588;2023-03-01T02:57:34;9.70;;;6.33;;
5608;SDS011;2826;51.354;9.588;2023-03-01T03:00:05;12.50;;;6.60;;
5608;SDS011;2826;51.354;9.588;2023-03-01T03:02:36;14.93;;;7.40;;
5608;SDS011;2826;51.354;9.588;2023-03-01T03:05:08;13.67;;;6.67;;
5608;SDS011;2826;51.354;9.588;2023-03-01T03:07:39;13.93;;;6.87;;
5608;SDS011;2826;51.354;9.588;2023-03-01T03:10:09;18.70;;;8.50;;
5608;SDS011;2826;51.354;9.588;2023-03-01T03:12:38;9.97;;;6.40;;
5608;SDS011;2826;51.354;9.588;2023-03-01T03:15:06;17.17;;;6.23;;
5608;SDS011;2826;51.354;9.588;2023-03-01T03:17:35;15.90;;;7.50;;
5608;SDS011;2826;51.354;9.588;2023-03-01T03:20:03;11.97;;;6.60;;
5608;SDS011;2826;51.354;9.588;2023-03-01T03:22:31;13.07;;;7.07;;
5608;SDS011;2826;51.354;9.588;2023-03-01T03:24:59;11.97;;;6.97;;
5608;SDS011;2826;51.354;9.588;2023-03-01T03:27:25;17.47;;;7.10;;
5608;SDS011;2826;51.354;9.588;2023-03-01T03:29:52;12.00;;;6.20;;
5608;SDS011;2826;51.354;9.588;2023-03-01T03:32:18;12.43;;;6.47;;
5608;SDS011;2826;51.354;9.588;2023-03-01T03:34:46;17.97;;;8.20;;
5608;SDS011;2826;51.354;9.588;2023-03-01T03:37:14;12.37;;;7.03;;
5608;SDS011;2826;51.354;9.588;2023-03-01T03:39:55;14.00;;;6.50;;
5608;SDS011;2826;51.354;9.588;2023-03-01T03:42:21;10.00;;;6.30;;
5608;SDS011;2826;51.354;9.588;2023-03-01T03:44:48;11.07;;;6.23;;
5608;SDS011;2826;51.354;9.588;2023-03-01T03:47:14;17.00;;;7.37;;
5608;SDS011;2826;51.354;9.588;2023-03-01T03:49:41;10.07;;;6.60;;
5608;SDS011;2826;51.354;9.588;2023-03-01T03:52:09;11.30;;;6.17;;
5608;SDS011;2826;51.354;9.588;2023-03-01T03:54:38;24.97;;;7.43;;
5608;SDS011;2826;51.354;9.588;2023-03-01T03:57:05;14.33;;;6.70;;
5608;SDS011;2826;51.354;9.588;2023-03-01T03:59:32;13.47;;;7.03;;
5608;SDS011;2826;51.354;9.588;2023-03-01T04:01:59;13.67;;;6.87;;
5608;SDS011;2826;51.354;9.588;2023-03-01T04:04:25;11.97;;;6.83;;
5608;SDS011;2826;51.354;9.588;2023-03-01T04:06:52;13.20;;;6.60;;
5608;SDS011;2826;51.354;9.588;2023-03-01T04:09:20;12.37;;;6.10;;
5608;SDS011;2826;51.354;9.588;2023-03-01T04:11:47;13.73;;;7.10;;
5608;SDS011;2826;51.354;9.588;2023-03-01T04:14:13;13.00;;;6.57;;
5608;SDS011;2826;51.354;9.588;2023-03-01T04:16:40;14.10;;;6.80;;
5608;SDS011;2826;51.354;9.588;2023-03-01T04:19:06;11.43;;;6.97;;
5608;SDS011;2826;51.354;9.588;2023-03-01T04:21:34;12.20;;;6.50;;
5608;SDS011;2826;51.354;9.588;2023-03-01T04:24:01;11.27;;;6.30;;
5608;SDS011;2826;51.354;9.588;2023-03-01T04:26:30;11.40;;;7.10;;
5608;SDS011;2826;51.354;9.588;2023-03-01T04:28:56;14.00;;;7.10;;
5608;SDS011;2826;51.354;9.588;2023-03-01T04:31:23;16.67;;;7.60;;
5608;SDS011;2826;51.354;9.588;2023-03-01T04:33:50;12.30;;;6.60;;
5608;SDS011;2826;51.354;9.588;2023-03-01T04:36:19;14.27;;;7.20;;
5608;SDS011;2826;51.354;9.588;2023-03-01T04:38:47;13.80;;;7.70;;
5608;SDS011;2826;51.354;9.588;2023-03-01T04:41:14;17.70;;;7.27;;
5608;SDS011;2826;51.354;9.588;2023-03-01T04:43:44;14.77;;;6.60;;
5608;SDS011;2826;51.354;9.588;2023-03-01T04:46:11;12.80;;;6.80;;
5608;SDS011;2826;51.354;9.588;2023-03-01T04:48:40;11.27;;;6.80;;
5608;SDS011;2826;51.354;9.588;2023-03-01T04:51:08;14.30;;;5.97;;
5608;SDS011;2826;51.354;9.588;2023-03-01T04:53:38;14.73;;;6.70;;
5608;SDS011;2826;51.354;9.588;2023-03-01T04:56:06;12.90;;;7.00;;
5608;SDS011;2826;51.354;9.588;2023-03-01T04:58:33;17.03;;;7.13;;
5608;SDS011;2826;51.354;9.588;2023-03-01T05:01:01;16.10;;;7.60;;
5608;SDS011;2826;51.354;9.588;2023-03-01T05:03:27;12.70;;;6.60;;
5608;SDS011;2826;51.354;9.588;2023-03-01T05:05:54;13.50;;;6.93;;
5608;SDS011;2826;51.354;9.588;2023-03-01T05:08:25;11.90;;;6.90;;
5608;SDS011;2826;51.354;9.588;2023-03-01T05:10:52;11.17;;;6.80;;
5608;SDS011;2826;51.354;9.588;2023-03-01T05:13:20;16.07;;;7.00;;
5608;SDS011;2826;51.354;9.588;2023-03-01T05:15:48;10.57;;;6.43;;
5608;SDS011;2826;51.354;9.588;2023-03-01T05:18:16;17.63;;;7.80;;
5608;SDS011;2826;51.354;9.588;2023-03-01T05:20:43;11.90;;;6.50;;
5608;SDS011;2826;51.354;9.588;2023-03-01T05:23:10;11.80;;;6.23;;
5608;SDS011;2826;51.354;9.588;2023-03-01T05:25:37;10.60;;;5.40;;
5608;SDS011;2826;51.354;9.588;2023-03-01T05:28:06;13.00;;;6.00;;
5608;SDS011;2826;51.354;9.588;2023-03-01T05:30:35;9.40;;;5.13;;
5608;SDS011;2826;51.354;9.588;2023-03-01T05:33:04;13.97;;;6.37;;
5608;SDS011;2826;51.354;9.588;2023-03-01T05:35:36;14.30;;;4.90;;
5608;SDS011;2826;51.354;9.588;2023-03-01T05:38:03;9.30;;;5.57;;
5608;SDS011;2826;51.354;9.588;2023-03-01T05:40:30;9.40;;;5.40;;
5608;SDS011;2826;51.354;9.588;2023-03-01T05:42:59;13.30;;;7.03;;
5608;SDS011;2826;51.354;9.588;2023-03-01T05:45:26;16.10;;;7.57;;
5608;SDS011;2826;51.354;9.588;2023-03-01T05:47:53;10.97;;;5.80;;
5608;SDS011;2826;51.354;9.588;2023-03-01T05:50:21;12.23;;;6.20;;
5608;SDS011;2826;51.354;9.588;2023-03-01T05:52:54;13.57;;;6.80;;
5608;SDS011;2826;51.354;9.588;2023-03-01T05:55:23;14.67;;;6.87;;
5608;SDS011;2826;51.354;9.588;2023-03-01T05:57:50;18.23;;;6.97;;
5608;SDS011;2826;51.354;9.588;2023-03-01T06:00:18;17.40;;;6.70;;
5608;SDS011;2826;51.354;9.588;2023-03-01T06:02:47;10.50;;;6.17;;
5608;SDS011;2826;51.354;9.588;2023-03-01T06:05:14;14.20;;;7.57;;
5608;SDS011;2826;51.354;9.588;2023-03-01T06:07:41;15.50;;;6.97;;
5608;SDS011;2826;51.354;9.588;2023-03-01T06:10:11;12.37;;;7.03;;
5608;SDS011;2826;51.354;9.588;2023-03-01T06:12:39;13.83;;;6.40;;
5608;SDS011;2826;51.354;9.588;2023-03-01T06:15:07;12.00;;;6.90;;
5608;SDS011;2826;51.354;9.588;2023-03-01T06:17:35;10.43;;;6.70;;
5608;SDS011;2826;51.354;9.588;2023-03-01T06:20:03;15.83;;;7.50;;
5608;SDS011;2826;51.354;9.588;2023-03-01T06:22:32;17.63;;;6.70;;
5608;SDS011;2826;51.354;9.588;2023-03-01T06:24:59;14.17;;;6.87;;
5608;SDS011;2826;51.354;9.588;2023-03-01T06:27:27;12.17;;;6.63;;
5608;SDS011;2826;51.354;9.588;2023-03-01T06:29:53;16.20;;;8.20;;
5608;SDS011;2826;51.354;9.588;2023-03-01T06:32:20;13.20;;;7.40;;
5608;SDS011;2826;51.354;9.588;2023-03-01T06:34:47;16.10;;;7.00;;
5608;SDS011;2826;51.354;9.588;2023-03-01T06:37:13;18.70;;;6.67;;
5608;SDS011;2826;51.354;9.588;2023-03-01T06:39:40;16.67;;;8.40;;
5608;SDS011;2826;51.354;9.588;2023-03-01T06:42:06;10.57;;;7.23;;
5608;SDS011;2826;51.354;9.588;2023-03-01T06:44:35;12.47;;;7.60;;
5608;SDS011;2826;51.354;9.588;2023-03-01T06:47:01;13.23;;;6.40;;
5608;SDS011;2826;51.354;9.588;2023-03-01T06:49:28;16.30;;;7.60;;
5608;SDS011;2826;51.354;9.588;2023-03-01T06:51:55;15.57;;;8.07;;
5608;SDS011;2826;51.354;9.588;2023-03-01T06:54:22;14.20;;;7.17;;
5608;SDS011;2826;51.354;9.588;2023-03-01T06:56:49;15.57;;;8.47;;
5608;SDS011;2826;51.354;9.588;2023-03-01T06:59:16;14.10;;;8.00;;
5608;SDS011;2826;51.354;9.588;2023-03-01T07:01:44;21.77;;;10.67;;
5608;SDS011;2826;51.354;9.588;2023-03-01T07:04:11;13.90;;;7.60;;
5608;SDS011;2826;51.354;9.588;2023-03-01T07:06:38;14.20;;;7.87;;
5608;SDS011;2826;51.354;9.588;2023-03-01T07:09:05;17.03;;;9.30;;
5608;SDS011;2826;51.354;9.588;2023-03-01T07:11:32;17.03;;;7.90;;
5608;SDS011;2826;51.354;9.588;2023-03-01T07:13:58;12.07;;;6.87;;
5608;SDS011;2826;51.354;9.588;2023-03-01T07:16:25;12.47;;;6.50;;
5608;SDS011;2826;51.354;9.588;2023-03-01T07:18:53;18.63;;;7.47;;
5608;SDS011;2826;51.354;9.588;2023-03-01T07:21:20;14.13;;;7.40;;
5608;SDS011;2826;51.354;9.588;2023-03-01T07:23:47;15.13;;;7.47;;
5608;SDS011;2826;51.354;9.588;2023-03-01T07:26:14;17.00;;;7.90;;
5608;SDS011;2826;51.354;9.588;2023-03-01T07:28:40;18.10;;;6.87;;
5608;SDS011;2826;51.354;9.588;2023-03-01T07:31:07;14.23;;;7.53;;
5608;SDS011;2826;51.354;9.588;2023-03-01T07:33:33;12.97;;;7.27;;
5608;SDS011;2826;51.354;9.588;2023-03-01T07:36:02;12.93;;;6.60;;
5608;SDS011;2826;51.354;9.588;2023-03-01T07:38:30;12.47;;;6.57;;
5608;SDS011;2826;51.354;9.588;2023-03-01T07:40:57;15.33;;;7.27;;
5608;SDS011;2826;51.354;9.588;2023-03-01T07:43:25;13.13;;;6.83;;
5608;SDS011;2826;51.354;9.588;2023-03-01T07:45:52;13.10;;;6.20;;
5608;SDS011;2826;51.354;9.588;2023-03-01T07:48:19;13.33;;;6.70;;
5608;SDS011;2826;51.354;9.588;2023-03-01T07:50:45;20.37;;;6.67;;
5608;SDS011;2826;51.354;9.588;2023-03-01T07:53:13;10.63;;;4.07;;
5608;SDS011;2826;51.354;9.588;2023-03-01T07:55:40;10.90;;;6.23;;
5608;SDS011;2826;51.354;9.588;2023-03-01T07:58:07;11.40;;;7.07;;
5608;SDS011;2826;51.354;9.588;2023-03-01T08:00:33;12.70;;;6.50;;
5608;SDS011;2826;51.354;9.588;2023-03-01T08:03:00;11.23;;;5.73;;
5608;SDS011;2826;51.354;9.588;2023-03-01T08:05:28;14.00;;;6.90;;
5608;SDS011;2826;51.354;9.588;2023-03-01T08:07:55;10.63;;;6.00;;
5608;SDS011;2826;51.354;9.588;2023-03-01T08:10:23;12.50;;;6.63;;
5608;SDS011;2826;51.354;9.588;2023-03-01T08:12:50;12.97;;;6.77;;
5608;SDS011;2826;51.354;9.588;2023-03-01T08:15:18;50.30;;;19.40;;
5608;SDS011;2826;51.354;9.588;2023-03-01T08:17:44;25.27;;;11.00;;
5608;SDS011;2826;51.354;9.588;2023-03-01T08:20:11;32.33;;;13.00;;
5608;SDS011;2826;51.354;9.588;2023-03-01T08:22:38;15.30;;;8.40;;
5608;SDS011;2826;51.354;9.588;2023-03-01T08:25:05;14.23;;;7.50;;
5608;SDS011;2826;51.354;9.588;2023-03-01T08:27:32;13.60;;;7.00;;
5608;SDS011;2826;51.354;9.588;2023-03-01T08:29:59;10.80;;;6.13;;
5608;SDS011;2826;51.354;9.588;2023-03-01T08:32:26;9.27;;;5.60;;
5608;SDS011;2826;51.354;9.588;2023-03-01T08:34:52;9.20;;;5.40;;
5608;SDS011;2826;51.354;9.588;2023-03-01T08:37:19;13.17;;;6.53;;
5608;SDS011;2826;51.354;9.588;2023-03-01T08:39:46;13.23;;;6.40;;
5608;SDS011;2826;51.354;9.588;2023-03-01T08:42:12;15.23;;;6.87;;
5608;SDS011;2826;51.354;9.588;2023-03-01T08:44:40;9.40;;;4.90;;
5608;SDS011;2826;51.354;9.588;2023-03-01T08:47:07;12.10;;;6.30;;
5608;SDS011;2826;51.354;9.588;2023-03-01T08:49:33;9.73;;;5.60;;
5608;SDS011;2826;51.354;9.588;2023-03-01T08:52:01;13.00;;;5.43;;
5608;SDS011;2826;51.354;9.588;2023-03-01T08:54:28;9.93;;;5.23;;
5608;SDS011;2826;51.354;9.588;2023-03-01T08:56:55;13.83;;;4.83;;
5608;SDS011;2826;51.354;9.588;2023-03-01T08:59:24;8.80;;;5.63;;
5608;SDS011;2826;51.354;9.588;2023-03-01T09:01:52;7.90;;;4.90;;
5608;SDS011;2826;51.354;9.588;2023-03-01T09:04:19;9.30;;;5.57;;
5608;SDS011;2826;51.354;9.588;2023-03-01T09:06:46;11.57;;;5.60;;
5608;SDS011;2826;51.354;9.588;2023-03-01T09:09:13;10.83;;;5.80;;
5608;SDS011;2826;51.354;9.588;2023-03-01T09:11:41;10.90;;;5.20;;
5608;SDS011;2826;51.354;9.588;2023-03-01T09:14:09;10.13;;;5.80;;
5608;SDS011;2826;51.354;9.588;2023-03-01T09:16:35;14.83;;;5.53;;
5608;SDS011;2826;51.354;9.588;2023-03-01T09:19:03;14.57;;;6.93;;
5608;SDS011;2826;51.354;9.588;2023-03-01T09:21:31;9.53;;;5.97;;
5608;SDS011;2826;51.354;9.588;2023-03-01T09:23:57;10.23;;;5.50;;
5608;SDS011;2826;51.354;9.588;2023-03-01T09:26:24;16.10;;;5.90;;
5608;SDS011;2826;51.354;9.588;2023-03-01T09:28:53;11.13;;;6.13;;
5608;SDS011;2826;51.354;9.588;2023-03-01T09:31:22;7.60;;;5.00;;
5608;SDS011;2826;51.354;9.588;2023-03-01T09:33:50;11.67;;;5.43;;
5608;SDS011;2826;51.354;9.588;2023-03-01T09:36:20;13.13;;;5.83;;
5608;SDS011;2826;51.354;9.588;2023-03-01T09:38:49;8.80;;;4.80;;
5608;SDS011;2826;51.354;9.588;2023-03-01T09:41:22;9.53;;;5.70;;
5608;SDS011;2826;51.354;9.588;2023-03-01T09:43:59;9.70;;;5.20;;
5608;SDS011;2826;51.354;9.588;2023-03-01T09:46:30;7.80;;;4.50;;
5608;SDS011;2826;51.354;9.588;2023-03-01T09:49:02;12.40;;;5.77;;
5608;SDS011;2826;51.354;9.588;2023-03-01T09:51:36;10.70;;;6.30;;
5608;SDS011;2826;51.354;9.588;2023-03-01T09:54:03;12.20;;;6.13;;
5608;SDS011;2826;51.354;9.588;2023-03-01T09:56:34;14.40;;;6.10;;
5608;SDS011;2826;51.354;9.588;2023-03-01T09:59:09;10.30;;;5.97;;
5608;SDS011;2826;51.354;9.588;2023-03-01T10:01:46;11.60;;;5.83;;
5608;SDS011;2826;51.354;9.588;2023-03-01T10:04:26;16.60;;;6.00;;
5608;SDS011;2826;51.354;9.588;2023-03-01T10:07:05;13.47;;;6.40;;
5608;SDS011;2826;51.354;9.588;2023-03-01T10:09:44;9.10;;;4.80;;
5608;SDS011;2826;51.354;9.588;2023-03-01T10:12:12;12.07;;;5.87;;
5608;SDS011;2826;51.354;9.588;2023-03-01T10:14:43;10.60;;;5.40;;
5608;SDS011;2826;51.354;9.588;2023-03-01T10:17:23;16.73;;;6.73;;
5608;SDS011;2826;51.354;9.588;2023-03-01T10:19:53;11.50;;;6.33;;
5608;SDS011;2826;51.354;9.588;2023-03-01T10:22:24;10.63;;;6.20;;
5608;SDS011;2826;51.354;9.588;2023-03-01T10:24:54;10.10;;;5.50;;
5608;SDS011;2826;51.354;9.588;2023-03-01T10:27:24;12.97;;;6.23;;
5608;SDS011;2826;51.354;9.588;2023-03-01T10:29:53;9.57;;;5.60;;
5608;SDS011;2826;51.354;9.588;2023-03-01T10:32:26;10.43;;;5.63;;
5608;SDS011;2826;51.354;9.588;2023-03-01T10:34:53;16.43;;;7.00;;
5608;SDS011;2826;51.354;9.588;2023-03-01T10:37:20;9.73;;;6.23;;
5608;SDS011;2826;51.354;9.588;2023-03-01T10:40:00;14.30;;;6.20;;
5608;SDS011;2826;51.354;9.588;2023-03-01T10:42:33;11.87;;;6.60;;
5608;SDS011;2826;51.354;9.588;2023-03-01T10:48:03;12.10;;;7.17;;
5608;SDS011;2826;51.354;9.588;2023-03-01T10:50:31;14.43;;;6.43;;
5608;SDS011;2826;51.354;9.588;2023-03-01T10:52:58;10.80;;;7.07;;
5608;SDS011;2826;51.354;9.588;2023-03-01T10:55:29;12.90;;;7.67;;
5608;SDS011;2826;51.354;9.588;2023-03-01T10:58:07;16.70;;;6.67;;
5608;SDS011;2826;51.354;9.588;2023-03-01T11:00:46;13.37;;;6.90;;
5608;SDS011;2826;51.354;9.588;2023-03-01T11:03:16;14.10;;;7.33;;
5608;SDS011;2826;51.354;9.588;2023-03-01T11:05:56;11.77;;;5.80;;
5608;SDS011;2826;51.354;9.588;2023-03-01T11:08:32;11.13;;;6.60;;
5608;SDS011;2826;51.354;9.588;2023-03-01T11:11:06;16.43;;;7.70;;
5608;SDS011;2826;51.354;9.588;2023-03-01T11:13:47;11.33;;;5.83;;
5608;SDS011;2826;51.354;9.588;2023-03-01T11:16:22;11.13;;;6.10;;
5608;SDS011;2826;51.354;9.588;2023-03-01T11:18:59;15.70;;;6.97;;
5608;SDS011;2826;51.354;9.588;2023-03-01T11:21:28;14.53;;;6.80;;
5608;SDS011;2826;51.354;9.588;2023-03-01T11:23:57;13.60;;;7.37;;
5608;SDS011;2826;51.354;9.588;2023-03-01T11:26:28;12.47;;;6.80;;
5608;SDS011;2826;51.354;9.588;2023-03-01T11:28:58;10.13;;;4.83;;
5608;SDS011;2826;51.354;9.588;2023-03-01T11:31:28;15.70;;;7.07;;
5608;SDS011;2826;51.354;9.588;2023-03-01T11:33:57;10.50;;;6.27;;
5608;SDS011;2826;51.354;9.588;2023-03-01T11:36:28;11.50;;;6.60;;
5608;SDS011;2826;51.354;9.588;2023-03-01T11:39:02;11.90;;;6.30;;
5608;SDS011;2826;51.354;9.588;2023-03-01T11:41:39;12.83;;;6.60;;
5608;SDS011;2826;51.354;9.588;2023-03-01T11:44:10;14.93;;;6.47;;
5608;SDS011;2826;51.354;9.588;2023-03-01T11:46:46;8.80;;;6.13;;
5608;SDS011;2826;51.354;9.588;2023-03-01T11:49:34;17.93;;;6.80;;
5608;SDS011;2826;51.354;9.588;2023-03-01T11:52:21;12.10;;;6.60;;
5608;SDS011;2826;51.354;9.588;2023-03-01T11:55:02;12.70;;;6.33;;
5608;SDS011;2826;51.354;9.588;2023-03-01T11:57:47;13.47;;;7.67;;
5608;SDS011;2826;51.354;9.588;2023-03-01T12:00:36;12.70;;;6.67;;
5608;SDS011;2826;51.354;9.588;2023-03-01T12:03:22;15.83;;;6.77;;
5608;SDS011;2826;51.354;9.588;2023-03-01T12:05:59;14.73;;;6.60;;
5608;SDS011;2826;51.354;9.588;2023-03-01T12:08:37;9.77;;;4.67;;
5608;SDS011;2826;51.354;9.588;2023-03-01T12:11:15;10.93;;;6.70;;
5608;SDS011;2826;51.354;9.588;2023-03-01T12:13:55;13.63;;;5.97;;
5608;SDS011;2826;51.354;9.588;2023-03-01T12:16:58;11.77;;;6.53;;
5608;SDS011;2826;51.354;9.588;2023-03-01T12:19:41;13.00;;;7.10;;
5608;SDS011;2826;51.354;9.588;2023-03-01T12:22:27;12.90;;;6.47;;
5608;SDS011;2826;51.354;9.588;2023-03-01T12:25:10;10.57;;;6.40;;
5608;SDS011;2826;51.354;9.588;2023-03-01T12:27:50;14.97;;;7.47;;
5608;SDS011;2826;51.354;9.588;2023-03-01T12:30:32;9.67;;;5.90;;
5608;SDS011;2826;51.354;9.588;2023-03-01T12:33:10;14.57;;;6.30;;
5608;SDS011;2826;51.354;9.588;2023-03-01T12:35:50;12.70;;;6.57;;
5608;SDS011;2826;51.354;9.588;2023-03-01T12:38:32;12.83;;;6.47;;
5608;SDS011;2826;51.354;9.588;2023-03-01T12:41:08;13.03;;;6.40;;
5608;SDS011;2826;51.354;9.588;2023-03-01T12:43:48;11.20;;;5.90;;
5608;SDS011;2826;51.354;9.588;2023-03-01T12:46:31;11.00;;;5.80;;
5608;SDS011;2826;51.354;9.588;2023-03-01T12:49:06;14.80;;;6.77;;
5608;SDS011;2826;51.354;9.588;2023-03-01T12:51:37;11.53;;;6.10;;
5608;SDS011;2826;51.354;9.588;2023-03-01T12:54:05;13.53;;;6.13;;
5608;SDS011;2826;51.354;9.588;2023-03-01T12:56:38;11.10;;;5.70;;
5608;SDS011;2826;51.354;9.588;2023-03-01T12:59:07;12.70;;;6.57;;
5608;SDS011;2826;51.354;9.588;2023-03-01T13:01:42;7.70;;;3.60;;
5608;SDS011;2826;51.354;9.588;2023-03-01T13:04:21;13.77;;;5.67;;
5608;SDS011;2826;51.354;9.588;2023-03-01T13:06:55;10.30;;;5.20;;
5608;SDS011;2826;51.354;9.588;2023-03-01T13:09:31;13.10;;;6.80;;
5608;SDS011;2826;51.354;9.588;2023-03-01T13:12:03;8.53;;;4.83;;
5608;SDS011;2826;51.354;9.588;2023-03-01T13:14:51;9.60;;;5.37;;
5608;SDS011;2826;51.354;9.588;2023-03-01T13:17:30;8.23;;;5.17;;
5608;SDS011;2826;51.354;9.588;2023-03-01T13:19:59;12.67;;;5.67;;
5608;SDS011;2826;51.354;9.588;2023-03-01T13:22:27;10.40;;;5.17;;
5608;SDS011;2826;51.354;9.588;2023-03-01T13:25:12;10.43;;;5.70;;
5608;SDS011;2826;51.354;9.588;2023-03-01T13:27:41;9.87;;;5.40;;
5608;SDS011;2826;51.354;9.588;2023-03-01T13:36:11;8.10;;;4.17;;
5608;SDS011;2826;51.354;9.588;2023-03-01T13:39:30;9.60;;;4.73;;
5608;SDS011;2826;51.354;9.588;2023-03-01T13:42:25;9.37;;;5.17;;
5608;SDS011;2826;51.354;9.588;2023-03-01T13:44:57;5.77;;;4.07;;
5608;SDS011;2826;51.354;9.588;2023-03-01T13:47:25;9.77;;;4.83;;
5608;SDS011;2826;51.354;9.588;2023-03-01T13:49:55;11.73;;;5.47;;
5608;SDS011;2826;51.354;9.588;2023-03-01T13:52:32;7.53;;;4.83;;
5608;SDS011;2826;51.354;9.588;2023-03-01T13:55:05;5.20;;;3.53;;
5608;SDS011;2826;51.354;9.588;2023-03-01T13:57:46;9.17;;;4.80;;
5608;SDS011;2826;51.354;9.588;2023-03-01T14:00:30;11.47;;;5.77;;
5608;SDS011;2826;51.354;9.588;2023-03-01T14:03:00;8.40;;;5.00;;
5608;SDS011;2826;51.354;9.588;2023-03-01T14:05:29;10.73;;;4.83;;
5608;SDS011;2826;51.354;9.588;2023-03-01T14:07:55;8.40;;;5.17;;
5608;SDS011;2826;51.354;9.588;2023-03-01T14:10:22;9.43;;;5.30;;
5608;SDS011;2826;51.354;9.588;2023-03-01T14:12:57;8.50;;;5.40;;
5608;SDS011;2826;51.354;9.588;2023-03-01T14:15:37;9.17;;;5.33;;
5608;SDS011;2826;51.354;9.588;2023-03-01T14:18:14;9.70;;;5.47;;
5608;SDS011;2826;51.354;9.588;2023-03-01T14:20:48;7.80;;;5.40;;
5608;SDS011;2826;51.354;9.588;2023-03-01T14:23:17;8.20;;;4.10;;
5608;SDS011;2826;51.354;9.588;2023-03-01T14:25:46;8.20;;;4.83;;
5608;SDS011;2826;51.354;9.588;2023-03-01T14:28:16;9.53;;;5.37;;
5608;SDS011;2826;51.354;9.588;2023-03-01T14:30:47;10.77;;;5.37;;
5608;SDS011;2826;51.354;9.588;2023-03-01T14:33:22;7.53;;;5.40;;
5608;SDS011;2826;51.354;9.588;2023-03-01T14:35:54;8.60;;;5.17;;
5608;SDS011;2826;51.354;9.588;2023-03-01T14:38:23;8.60;;;5.00;;
5608;SDS011;2826;51.354;9.588;2023-03-01T14:40:58;7.80;;;4.73;;
5608;SDS011;2826;51.354;9.588;2023-03-01T14:43:27;10.20;;;5.43;;
5608;SDS011;2826;51.354;9.588;2023-03-01T14:45:56;9.63;;;4.40;;
5608;SDS011;2826;51.354;9.588;2023-03-01T14:48:24;7.37;;;4.93;;
5608;SDS011;2826;51.354;9.588;2023-03-01T14:50:53;11.70;;;5.53;;
5608;SDS011;2826;51.354;9.588;2023-03-01T14:53:21;9.60;;;5.20;;
5608;SDS011;2826;51.354;9.588;2023-03-01T14:55:51;11.73;;;5.03;;
5608;SDS011;2826;51.354;9.588;2023-03-01T14:58:20;6.70;;;4.47;;
5608;SDS011;2826;51.354;9.588;2023-03-01T15:00:49;8.70;;;5.20;;
5608;SDS011;2826;51.354;9.588;2023-03-01T15:03:20;14.57;;;5.63;;
5608;SDS011;2826;51.354;9.588;2023-03-01T15:05:53;12.40;;;4.70;;
5608;SDS011;2826;51.354;9.588;2023-03-01T15:08:21;9.73;;;4.83;;
5608;SDS011;2826;51.354;9.588;2023-03-01T15:10:58;8.00;;;4.57;;
5608;SDS011;2826;51.354;9.588;2023-03-01T15:13:29;7.47;;;4.50;;
5608;SDS011;2826;51.354;9.588;2023-03-01T15:16:01;6.83;;;4.83;;
5608;SDS011;2826;51.354;9.588;2023-03-01T15:18:32;8.23;;;5.13;;
5608;SDS011;2826;51.354;9.588;2023-03-01T15:21:07;8.90;;;4.60;;
5608;SDS011;2826;51.354;9.588;2023-03-01T15:23:36;12.90;;;5.57;;
5608;SDS011;2826;51.354;9.588;2023-03-01T15:26:04;8.93;;;5.40;;
5608;SDS011;2826;51.354;9.588;2023-03-01T15:28:32;8.77;;;5.40;;
5608;SDS011;2826;51.354;9.588;2023-03-01T15:31:00;11.10;;;5.27;;
5608;SDS011;2826;51.354;9.588;2023-03-01T15:33:31;11.73;;;5.60;;